sensor_id;sensor_type;location;lat;lon;timestamp;P1;durP1;ratioP1;P2;durP2;ratioP2
55710;SDS011;41612;51.994;5.880;2023-07-22T00:02:02;6.03;;;4.95;;
55710;SDS011;41612;51.994;5.880;2023-07-22T00:04:27;6.20;;;4.63;;
55710;SDS011;41612;51.994;5.880;2023-07-22T00:06:53;7.25;;;4.68;;
55710;SDS011;41612;51.994;5.880;2023-07-22T00:09:19;6.38;;;4.70;;
55710;SDS011;41612;51.994;5.880;2023-07-22T00:11:45;5.72;;;4.22;;
55710;SDS011;41612;51.994;5.880;2023-07-22T00:14:10;6.60;;;5.05;;
55710;SDS011;41612;51.994;5.880;2023-07-22T00:16:36;6.72;;;4.85;;
55710;SDS011;41612;51.994;5.880;2023-07-22T00:19:02;6.65;;;4.93;;
55710;SDS011;41612;51.994;5.880;2023-07-22T00:21:28;4.82;;;3.83;;
55710;SDS011;41612;51.994;5.880;2023-07-22T00:23:54;7.75;;;4.35;;
55710;SDS011;41612;51.994;5.880;2023-07-22T00:26:20;7.05;;;5.35;;
55710;SDS011;41612;51.994;5.880;2023-07-22T00:28:45;6.85;;;4.65;;
55710;SDS011;41612;51.994;5.880;2023-07-22T00:31:11;9.60;;;5.40;;
55710;SDS011;41612;51.994;5.880;2023-07-22T00:33:37;6.47;;;4.80;;
55710;SDS011;41612;51.994;5.880;2023-07-22T00:36:03;7.45;;;5.22;;
55710;SDS011;41612;51.994;5.880;2023-07-22T00:38:29;6.57;;;5.20;;
55710;SDS011;41612;51.994;5.880;2023-07-22T00:40:57;6.78;;;4.68;;
55710;SDS011;41612;51.994;5.880;2023-07-22T00:43:22;7.68;;;5.20;;
55710;SDS011;41612;51.994;5.880;2023-07-22T00:45:51;6.30;;;4.45;;
55710;SDS011;41612;51.994;5.880;2023-07-22T00:48:17;7.82;;;5.38;;
55710;SDS011;41612;51.994;5.880;2023-07-22T00:50:43;5.97;;;4.75;;
55710;SDS011;41612;51.994;5.880;2023-07-22T00:53:09;6.60;;;4.72;;
55710;SDS011;41612;51.994;5.880;2023-07-22T00:55:35;6.93;;;5.57;;
55710;SDS011;41612;51.994;5.880;2023-07-22T00:58:05;6.82;;;4.70;;
55710;SDS011;41612;51.994;5.880;2023-07-22T01:00:30;8.55;;;6.05;;
55710;SDS011;41612;51.994;5.880;2023-07-22T01:02:57;7.88;;;5.65;;
55710;SDS011;41612;51.994;5.880;2023-07-22T01:05:23;6.63;;;4.78;;
55710;SDS011;41612;51.994;5.880;2023-07-22T01:07:51;6.07;;;4.38;;
55710;SDS011;41612;51.994;5.880;2023-07-22T01:10:18;6.13;;;4.47;;
55710;SDS011;41612;51.994;5.880;2023-07-22T01:12:44;10.90;;;6.50;;
55710;SDS011;41612;51.994;5.880;2023-07-22T01:15:10;11.63;;;6.80;;
55710;SDS011;41612;51.994;5.880;2023-07-22T01:17:36;7.00;;;5.45;;
55710;SDS011;41612;51.994;5.880;2023-07-22T01:20:03;7.38;;;5.60;;
55710;SDS011;41612;51.994;5.880;2023-07-22T01:22:30;7.43;;;5.15;;
55710;SDS011;41612;51.994;5.880;2023-07-22T01:24:57;7.32;;;5.13;;
55710;SDS011;41612;51.994;5.880;2023-07-22T01:27:23;6.47;;;4.45;;
55710;SDS011;41612;51.994;5.880;2023-07-22T01:29:52;8.10;;;5.53;;
55710;SDS011;41612;51.994;5.880;2023-07-22T01:32:18;7.93;;;5.35;;
55710;SDS011;41612;51.994;5.880;2023-07-22T01:34:45;7.47;;;5.45;;
55710;SDS011;41612;51.994;5.880;2023-07-22T01:37:11;8.68;;;4.90;;
55710;SDS011;41612;51.994;5.880;2023-07-22T01:39:37;7.47;;;5.10;;
55710;SDS011;41612;51.994;5.880;2023-07-22T01:42:03;8.15;;;5.80;;
55710;SDS011;41612;51.994;5.880;2023-07-22T01:44:29;8.75;;;5.90;;
55710;SDS011;41612;51.994;5.880;2023-07-22T01:46:55;8.65;;;5.85;;
55710;SDS011;41612;51.994;5.880;2023-07-22T01:49:21;8.00;;;5.72;;
55710;SDS011;41612;51.994;5.880;2023-07-22T01:51:49;14.05;;;9.32;;
55710;SDS011;41612;51.994;5.880;2023-07-22T01:54:15;8.65;;;6.13;;
55710;SDS011;41612;51.994;5.880;2023-07-22T01:56:41;9.57;;;5.95;;
55710;SDS011;41612;51.994;5.880;2023-07-22T01:59:06;8.55;;;6.25;;
55710;SDS011;41612;51.994;5.880;2023-07-22T02:01:32;8.35;;;5.75;;
55710;SDS011;41612;51.994;5.880;2023-07-22T02:03:58;8.75;;;5.40;;
55710;SDS011;41612;51.994;5.880;2023-07-22T02:06:24;7.82;;;5.43;;
55710;SDS011;41612;51.994;5.880;2023-07-22T02:08:51;10.73;;;6.53;;
55710;SDS011;41612;51.994;5.880;2023-07-22T02:11:17;9.38;;;6.82;;
55710;SDS011;41612;51.994;5.880;2023-07-22T02:13:42;8.38;;;6.18;;
55710;SDS011;41612;51.994;5.880;2023-07-22T02:16:08;7.32;;;6.05;;
55710;SDS011;41612;51.994;5.880;2023-07-22T02:18:37;8.15;;;5.82;;
55710;SDS011;41612;51.994;5.880;2023-07-22T02:21:03;9.85;;;6.80;;
55710;SDS011;41612;51.994;5.880;2023-07-22T02:23:28;9.18;;;7.18;;
55710;SDS011;41612;51.994;5.880;2023-07-22T02:25:54;10.48;;;6.93;;
55710;SDS011;41612;51.994;5.880;2023-07-22T02:28:20;9.93;;;6.28;;
55710;SDS011;41612;51.994;5.880;2023-07-22T02:30:47;10.55;;;6.85;;
55710;SDS011;41612;51.994;5.880;2023-07-22T02:33:14;12.00;;;7.30;;
55710;SDS011;41612;51.994;5.880;2023-07-22T02:35:40;9.25;;;6.40;;
55710;SDS011;41612;51.994;5.880;2023-07-22T02:38:07;11.32;;;6.65;;
55710;SDS011;41612;51.994;5.880;2023-07-22T02:40:36;12.30;;;7.35;;
55710;SDS011;41612;51.994;5.880;2023-07-22T02:43:03;14.32;;;9.50;;
55710;SDS011;41612;51.994;5.880;2023-07-22T02:45:30;11.50;;;8.23;;
55710;SDS011;41612;51.994;5.880;2023-07-22T02:47:56;12.75;;;9.70;;
55710;SDS011;41612;51.994;5.880;2023-07-22T02:50:21;9.57;;;7.07;;
55710;SDS011;41612;51.994;5.880;2023-07-22T02:52:47;10.77;;;7.05;;
55710;SDS011;41612;51.994;5.880;2023-07-22T02:55:14;9.85;;;7.13;;
55710;SDS011;41612;51.994;5.880;2023-07-22T02:57:43;14.50;;;10.02;;
55710;SDS011;41612;51.994;5.880;2023-07-22T03:00:11;11.68;;;9.23;;
55710;SDS011;41612;51.994;5.880;2023-07-22T03:02:41;11.10;;;7.50;;
55710;SDS011;41612;51.994;5.880;2023-07-22T03:05:07;10.40;;;7.75;;
55710;SDS011;41612;51.994;5.880;2023-07-22T03:07:37;10.00;;;6.82;;
55710;SDS011;41612;51.994;5.880;2023-07-22T03:10:04;16.33;;;11.23;;
55710;SDS011;41612;51.994;5.880;2023-07-22T03:12:30;12.38;;;8.38;;
55710;SDS011;41612;51.994;5.880;2023-07-22T03:14:56;10.75;;;7.70;;
55710;SDS011;41612;51.994;5.880;2023-07-22T03:17:21;10.48;;;7.70;;
55710;SDS011;41612;51.994;5.880;2023-07-22T03:19:47;10.30;;;7.93;;
55710;SDS011;41612;51.994;5.880;2023-07-22T03:22:14;12.23;;;7.75;;
55710;SDS011;41612;51.994;5.880;2023-07-22T03:24:44;10.75;;;7.13;;
55710;SDS011;41612;51.994;5.880;2023-07-22T03:27:10;10.38;;;7.68;;
55710;SDS011;41612;51.994;5.880;2023-07-22T03:29:37;18.40;;;11.50;;
55710;SDS011;41612;51.994;5.880;2023-07-22T03:32:03;12.80;;;8.52;;
55710;SDS011;41612;51.994;5.880;2023-07-22T03:34:29;11.65;;;7.32;;
55710;SDS011;41612;51.994;5.880;2023-07-22T03:36:56;11.15;;;8.65;;
55710;SDS011;41612;51.994;5.880;2023-07-22T03:39:22;14.50;;;10.18;;
55710;SDS011;41612;51.994;5.880;2023-07-22T03:41:48;12.98;;;9.15;;
55710;SDS011;41612;51.994;5.880;2023-07-22T03:44:14;25.10;;;14.52;;
55710;SDS011;41612;51.994;5.880;2023-07-22T03:46:39;14.30;;;9.82;;
55710;SDS011;41612;51.994;5.880;2023-07-22T03:49:05;17.30;;;11.63;;
55710;SDS011;41612;51.994;5.880;2023-07-22T03:51:31;16.92;;;10.57;;
55710;SDS011;41612;51.994;5.880;2023-07-22T03:53:58;14.38;;;10.13;;
55710;SDS011;41612;51.994;5.880;2023-07-22T03:56:23;14.95;;;8.32;;
55710;SDS011;41612;51.994;5.880;2023-07-22T03:58:50;12.10;;;8.88;;
55710;SDS011;41612;51.994;5.880;2023-07-22T04:01:16;11.05;;;8.15;;
55710;SDS011;41612;51.994;5.880;2023-07-22T04:03:41;11.65;;;8.55;;
55710;SDS011;41612;51.994;5.880;2023-07-22T04:06:07;14.88;;;8.93;;
55710;SDS011;41612;51.994;5.880;2023-07-22T04:08:33;14.95;;;10.48;;
55710;SDS011;41612;51.994;5.880;2023-07-22T04:10:59;14.93;;;9.98;;
55710;SDS011;41612;51.994;5.880;2023-07-22T04:13:25;12.15;;;8.68;;
55710;SDS011;41612;51.994;5.880;2023-07-22T04:15:51;11.80;;;8.52;;
55710;SDS011;41612;51.994;5.880;2023-07-22T04:18:18;11.05;;;7.95;;
55710;SDS011;41612;51.994;5.880;2023-07-22T04:20:45;11.18;;;7.75;;
55710;SDS011;41612;51.994;5.880;2023-07-22T04:23:13;11.75;;;7.88;;
55710;SDS011;41612;51.994;5.880;2023-07-22T04:25:39;14.32;;;9.43;;
55710;SDS011;41612;51.994;5.880;2023-07-22T04:28:05;16.20;;;11.02;;
55710;SDS011;41612;51.994;5.880;2023-07-22T04:30:32;11.57;;;8.27;;
55710;SDS011;41612;51.994;5.880;2023-07-22T04:32:58;15.80;;;10.18;;
55710;SDS011;41612;51.994;5.880;2023-07-22T04:35:24;13.02;;;8.50;;
55710;SDS011;41612;51.994;5.880;2023-07-22T04:37:49;15.57;;;10.15;;
55710;SDS011;41612;51.994;5.880;2023-07-22T04:40:15;18.45;;;11.98;;
55710;SDS011;41612;51.994;5.880;2023-07-22T04:42:42;19.90;;;11.05;;
55710;SDS011;41612;51.994;5.880;2023-07-22T04:45:08;12.30;;;9.15;;
55710;SDS011;41612;51.994;5.880;2023-07-22T04:47:35;17.65;;;11.45;;
55710;SDS011;41612;51.994;5.880;2023-07-22T04:50:01;17.98;;;11.10;;
55710;SDS011;41612;51.994;5.880;2023-07-22T04:52:28;13.55;;;8.90;;
55710;SDS011;41612;51.994;5.880;2023-07-22T04:54:54;19.23;;;13.93;;
55710;SDS011;41612;51.994;5.880;2023-07-22T04:57:20;22.15;;;13.30;;
55710;SDS011;41612;51.994;5.880;2023-07-22T04:59:46;21.70;;;14.38;;
55710;SDS011;41612;51.994;5.880;2023-07-22T05:02:12;24.23;;;13.65;;
55710;SDS011;41612;51.994;5.880;2023-07-22T05:04:37;17.27;;;11.77;;
55710;SDS011;41612;51.994;5.880;2023-07-22T05:07:03;18.35;;;11.32;;
55710;SDS011;41612;51.994;5.880;2023-07-22T05:09:29;19.38;;;13.30;;
55710;SDS011;41612;51.994;5.880;2023-07-22T05:11:55;27.55;;;18.02;;
55710;SDS011;41612;51.994;5.880;2023-07-22T05:14:21;19.08;;;12.93;;
55710;SDS011;41612;51.994;5.880;2023-07-22T05:16:46;26.67;;;17.08;;
55710;SDS011;41612;51.994;5.880;2023-07-22T05:19:12;18.65;;;12.27;;
55710;SDS011;41612;51.994;5.880;2023-07-22T05:21:38;25.92;;;15.05;;
55710;SDS011;41612;51.994;5.880;2023-07-22T05:24:03;29.92;;;18.52;;
55710;SDS011;41612;51.994;5.880;2023-07-22T05:26:29;21.52;;;13.15;;
55710;SDS011;41612;51.994;5.880;2023-07-22T05:28:56;28.38;;;16.73;;
55710;SDS011;41612;51.994;5.880;2023-07-22T05:31:22;24.90;;;15.65;;
55710;SDS011;41612;51.994;5.880;2023-07-22T05:33:47;24.38;;;15.32;;
55710;SDS011;41612;51.994;5.880;2023-07-22T05:36:13;28.30;;;14.73;;
55710;SDS011;41612;51.994;5.880;2023-07-22T05:38:39;23.15;;;15.63;;
55710;SDS011;41612;51.994;5.880;2023-07-22T05:41:04;24.80;;;15.25;;
55710;SDS011;41612;51.994;5.880;2023-07-22T05:43:30;28.27;;;18.27;;
55710;SDS011;41612;51.994;5.880;2023-07-22T05:45:56;32.45;;;19.17;;
55710;SDS011;41612;51.994;5.880;2023-07-22T05:48:22;36.40;;;21.83;;
55710;SDS011;41612;51.994;5.880;2023-07-22T05:50:47;33.17;;;17.65;;
55710;SDS011;41612;51.994;5.880;2023-07-22T05:53:13;24.70;;;16.50;;
55710;SDS011;41612;51.994;5.880;2023-07-22T05:55:39;37.00;;;21.23;;
55710;SDS011;41612;51.994;5.880;2023-07-22T05:58:05;21.33;;;14.70;;
55710;SDS011;41612;51.994;5.880;2023-07-22T06:00:32;24.75;;;16.45;;
55710;SDS011;41612;51.994;5.880;2023-07-22T06:02:58;24.35;;;16.83;;
55710;SDS011;41612;51.994;5.880;2023-07-22T06:05:24;20.33;;;13.35;;
55710;SDS011;41612;51.994;5.880;2023-07-22T06:07:50;30.05;;;18.73;;
55710;SDS011;41612;51.994;5.880;2023-07-22T06:10:15;29.08;;;19.15;;
55710;SDS011;41612;51.994;5.880;2023-07-22T06:12:41;27.95;;;16.92;;
55710;SDS011;41612;51.994;5.880;2023-07-22T06:15:07;27.15;;;17.35;;
55710;SDS011;41612;51.994;5.880;2023-07-22T06:17:33;31.15;;;21.67;;
55710;SDS011;41612;51.994;5.880;2023-07-22T06:19:58;30.45;;;20.35;;
55710;SDS011;41612;51.994;5.880;2023-07-22T06:22:24;25.83;;;17.25;;
55710;SDS011;41612;51.994;5.880;2023-07-22T06:24:50;29.30;;;18.23;;
55710;SDS011;41612;51.994;5.880;2023-07-22T06:27:15;26.35;;;16.92;;
55710;SDS011;41612;51.994;5.880;2023-07-22T06:29:41;31.13;;;21.38;;
55710;SDS011;41612;51.994;5.880;2023-07-22T06:32:07;29.65;;;19.98;;
55710;SDS011;41612;51.994;5.880;2023-07-22T06:34:33;33.05;;;20.00;;
55710;SDS011;41612;51.994;5.880;2023-07-22T06:36:58;19.13;;;12.98;;
55710;SDS011;41612;51.994;5.880;2023-07-22T06:39:24;27.02;;;17.42;;
55710;SDS011;41612;51.994;5.880;2023-07-22T06:41:50;25.15;;;15.57;;
55710;SDS011;41612;51.994;5.880;2023-07-22T06:44:15;20.02;;;13.18;;
55710;SDS011;41612;51.994;5.880;2023-07-22T06:46:41;18.08;;;13.43;;
55710;SDS011;41612;51.994;5.880;2023-07-22T06:49:07;19.77;;;14.25;;
55710;SDS011;41612;51.994;5.880;2023-07-22T06:51:32;34.22;;;18.73;;
55710;SDS011;41612;51.994;5.880;2023-07-22T06:53:58;26.63;;;16.33;;
55710;SDS011;41612;51.994;5.880;2023-07-22T06:56:24;26.35;;;18.65;;
55710;SDS011;41612;51.994;5.880;2023-07-22T06:58:51;18.88;;;12.68;;
55710;SDS011;41612;51.994;5.880;2023-07-22T07:01:17;24.83;;;16.58;;
55710;SDS011;41612;51.994;5.880;2023-07-22T07:03:42;29.48;;;19.65;;
55710;SDS011;41612;51.994;5.880;2023-07-22T07:06:08;26.67;;;17.35;;
55710;SDS011;41612;51.994;5.880;2023-07-22T07:08:34;21.38;;;14.98;;
55710;SDS011;41612;51.994;5.880;2023-07-22T07:11:00;21.83;;;14.50;;
55710;SDS011;41612;51.994;5.880;2023-07-22T07:13:26;29.42;;;18.13;;
55710;SDS011;41612;51.994;5.880;2023-07-22T07:15:52;25.50;;;17.33;;
55710;SDS011;41612;51.994;5.880;2023-07-22T07:18:18;27.45;;;17.02;;
55710;SDS011;41612;51.994;5.880;2023-07-22T07:20:44;19.60;;;14.32;;
55710;SDS011;41612;51.994;5.880;2023-07-22T07:23:10;25.95;;;16.40;;
55710;SDS011;41612;51.994;5.880;2023-07-22T07:25:35;23.70;;;16.00;;
55710;SDS011;41612;51.994;5.880;2023-07-22T07:28:01;21.50;;;14.73;;
55710;SDS011;41612;51.994;5.880;2023-07-22T07:30:28;28.13;;;17.45;;
55710;SDS011;41612;51.994;5.880;2023-07-22T07:32:54;24.15;;;15.57;;
55710;SDS011;41612;51.994;5.880;2023-07-22T07:35:19;27.30;;;16.30;;
55710;SDS011;41612;51.994;5.880;2023-07-22T07:37:45;24.25;;;16.40;;
55710;SDS011;41612;51.994;5.880;2023-07-22T07:40:11;25.58;;;17.20;;
55710;SDS011;41612;51.994;5.880;2023-07-22T07:42:37;25.05;;;15.77;;
55710;SDS011;41612;51.994;5.880;2023-07-22T07:45:03;29.05;;;17.75;;
55710;SDS011;41612;51.994;5.880;2023-07-22T07:47:29;22.88;;;15.02;;
55710;SDS011;41612;51.994;5.880;2023-07-22T07:49:55;20.35;;;13.27;;
55710;SDS011;41612;51.994;5.880;2023-07-22T07:52:21;22.80;;;14.77;;
55710;SDS011;41612;51.994;5.880;2023-07-22T07:54:47;23.35;;;14.63;;
55710;SDS011;41612;51.994;5.880;2023-07-22T07:57:13;20.85;;;14.48;;
55710;SDS011;41612;51.994;5.880;2023-07-22T07:59:39;17.02;;;11.35;;
55710;SDS011;41612;51.994;5.880;2023-07-22T08:02:04;19.60;;;13.52;;
55710;SDS011;41612;51.994;5.880;2023-07-22T08:04:34;19.98;;;13.00;;
55710;SDS011;41612;51.994;5.880;2023-07-22T08:07:00;20.33;;;13.07;;
55710;SDS011;41612;51.994;5.880;2023-07-22T08:09:25;19.23;;;12.68;;
55710;SDS011;41612;51.994;5.880;2023-07-22T08:11:51;20.95;;;13.90;;
55710;SDS011;41612;51.994;5.880;2023-07-22T08:14:17;15.75;;;10.38;;
55710;SDS011;41612;51.994;5.880;2023-07-22T08:16:43;12.90;;;8.93;;
55710;SDS011;41612;51.994;5.880;2023-07-22T08:19:09;18.80;;;12.07;;
55710;SDS011;41612;51.994;5.880;2023-07-22T08:21:35;18.73;;;12.32;;
55710;SDS011;41612;51.994;5.880;2023-07-22T08:24:01;15.30;;;10.23;;
55710;SDS011;41612;51.994;5.880;2023-07-22T08:26:27;20.23;;;10.43;;
55710;SDS011;41612;51.994;5.880;2023-07-22T08:28:53;14.80;;;9.93;;
55710;SDS011;41612;51.994;5.880;2023-07-22T08:31:19;15.63;;;10.77;;
55710;SDS011;41612;51.994;5.880;2023-07-22T08:33:44;15.20;;;11.02;;
55710;SDS011;41612;51.994;5.880;2023-07-22T08:36:10;12.00;;;8.73;;
55710;SDS011;41612;51.994;5.880;2023-07-22T08:38:36;18.83;;;11.02;;
55710;SDS011;41612;51.994;5.880;2023-07-22T08:41:03;14.60;;;9.63;;
55710;SDS011;41612;51.994;5.880;2023-07-22T08:43:32;14.77;;;10.05;;
55710;SDS011;41612;51.994;5.880;2023-07-22T08:46:01;18.25;;;9.63;;
55710;SDS011;41612;51.994;5.880;2023-07-22T08:48:29;13.07;;;9.40;;
55710;SDS011;41612;51.994;5.880;2023-07-22T08:51:03;17.33;;;11.48;;
55710;SDS011;41612;51.994;5.880;2023-07-22T15:20:03;4.45;;;2.38;;
55710;SDS011;41612;51.994;5.880;2023-07-22T15:22:29;6.25;;;2.65;;
55710;SDS011;41612;51.994;5.880;2023-07-22T15:24:54;3.28;;;2.08;;
55710;SDS011;41612;51.994;5.880;2023-07-22T15:27:23;4.65;;;2.08;;
55710;SDS011;41612;51.994;5.880;2023-07-22T15:29:49;6.47;;;2.67;;
55710;SDS011;41612;51.994;5.880;2023-07-22T15:32:14;4.75;;;2.45;;
55710;SDS011;41612;51.994;5.880;2023-07-22T15:34:40;5.50;;;1.90;;
55710;SDS011;41612;51.994;5.880;2023-07-22T15:37:06;8.45;;;3.40;;
55710;SDS011;41612;51.994;5.880;2023-07-22T15:39:32;4.07;;;1.90;;
55710;SDS011;41612;51.994;5.880;2023-07-22T15:41:59;3.90;;;1.80;;
55710;SDS011;41612;51.994;5.880;2023-07-22T15:44:25;4.95;;;2.60;;
55710;SDS011;41612;51.994;5.880;2023-07-22T15:46:53;4.25;;;2.45;;
55710;SDS011;41612;51.994;5.880;2023-07-22T15:49:19;3.30;;;1.75;;
55710;SDS011;41612;51.994;5.880;2023-07-22T15:51:45;3.35;;;1.63;;
55710;SDS011;41612;51.994;5.880;2023-07-22T15:54:11;3.90;;;2.47;;
55710;SDS011;41612;51.994;5.880;2023-07-22T15:56:40;5.22;;;2.47;;
55710;SDS011;41612;51.994;5.880;2023-07-22T15:59:06;3.17;;;1.50;;
55710;SDS011;41612;51.994;5.880;2023-07-22T16:01:32;4.00;;;2.10;;
55710;SDS011;41612;51.994;5.880;2023-07-22T16:03:57;5.65;;;2.42;;
55710;SDS011;41612;51.994;5.880;2023-07-22T16:06:23;3.50;;;1.92;;
55710;SDS011;41612;51.994;5.880;2023-07-22T16:08:49;2.85;;;2.03;;
55710;SDS011;41612;51.994;5.880;2023-07-22T16:11:14;3.15;;;1.70;;
55710;SDS011;41612;51.994;5.880;2023-07-22T16:13:40;3.60;;;2.35;;
55710;SDS011;41612;51.994;5.880;2023-07-22T16:16:06;6.07;;;2.38;;
55710;SDS011;41612;51.994;5.880;2023-07-22T16:18:31;8.05;;;2.90;;
55710;SDS011;41612;51.994;5.880;2023-07-22T16:20:58;4.63;;;2.47;;
55710;SDS011;41612;51.994;5.880;2023-07-22T16:23:24;3.35;;;2.22;;
55710;SDS011;41612;51.994;5.880;2023-07-22T16:25:49;3.58;;;1.80;;
55710;SDS011;41612;51.994;5.880;2023-07-22T16:28:15;5.20;;;2.20;;
55710;SDS011;41612;51.994;5.880;2023-07-22T16:30:41;2.45;;;1.60;;
55710;SDS011;41612;51.994;5.880;2023-07-22T16:33:06;5.22;;;2.58;;
55710;SDS011;41612;51.994;5.880;2023-07-22T16:35:32;2.80;;;1.55;;
55710;SDS011;41612;51.994;5.880;2023-07-22T16:37:58;2.90;;;1.75;;
55710;SDS011;41612;51.994;5.880;2023-07-22T16:40:25;3.70;;;1.55;;
55710;SDS011;41612;51.994;5.880;2023-07-22T16:42:51;4.85;;;2.35;;
55710;SDS011;41612;51.994;5.880;2023-07-22T16:45:17;3.20;;;1.67;;
55710;SDS011;41612;51.994;5.880;2023-07-22T16:47:42;3.72;;;1.90;;
55710;SDS011;41612;51.994;5.880;2023-07-22T16:50:08;5.97;;;2.70;;
55710;SDS011;41612;51.994;5.880;2023-07-22T16:52:34;4.95;;;2.22;;
55710;SDS011;41612;51.994;5.880;2023-07-22T16:54:59;3.65;;;1.95;;
55710;SDS011;41612;51.994;5.880;2023-07-22T16:57:25;5.22;;;2.35;;
55710;SDS011;41612;51.994;5.880;2023-07-22T16:59:51;4.55;;;2.50;;
55710;SDS011;41612;51.994;5.880;2023-07-22T17:02:17;4.00;;;2.08;;
55710;SDS011;41612;51.994;5.880;2023-07-22T17:04:43;6.80;;;2.53;;
55710;SDS011;41612;51.994;5.880;2023-07-22T17:07:09;5.95;;;2.38;;
55710;SDS011;41612;51.994;5.880;2023-07-22T17:09:35;4.80;;;2.63;;
55710;SDS011;41612;51.994;5.880;2023-07-22T17:12:01;5.70;;;2.83;;
55710;SDS011;41612;51.994;5.880;2023-07-22T17:14:27;2.95;;;1.60;;
55710;SDS011;41612;51.994;5.880;2023-07-22T17:16:53;4.30;;;2.13;;
55710;SDS011;41612;51.994;5.880;2023-07-22T17:19:18;4.45;;;2.35;;
55710;SDS011;41612;51.994;5.880;2023-07-22T17:21:44;4.60;;;2.03;;
55710;SDS011;41612;51.994;5.880;2023-07-22T17:24:09;6.65;;;2.78;;
55710;SDS011;41612;51.994;5.880;2023-07-22T17:26:35;4.65;;;2.30;;
55710;SDS011;41612;51.994;5.880;2023-07-22T17:29:01;5.18;;;2.72;;
55710;SDS011;41612;51.994;5.880;2023-07-22T17:31:26;5.70;;;2.78;;
55710;SDS011;41612;51.994;5.880;2023-07-22T17:33:52;3.47;;;2.17;;
55710;SDS011;41612;51.994;5.880;2023-07-22T17:36:18;4.07;;;2.08;;
55710;SDS011;41612;51.994;5.880;2023-07-22T17:38:44;3.85;;;1.70;;
55710;SDS011;41612;51.994;5.880;2023-07-22T17:41:09;5.00;;;2.78;;
55710;SDS011;41612;51.994;5.880;2023-07-22T17:43:35;3.30;;;1.70;;
55710;SDS011;41612;51.994;5.880;2023-07-22T17:46:01;4.43;;;1.80;;
55710;SDS011;41612;51.994;5.880;2023-07-22T17:48:28;5.03;;;2.83;;
55710;SDS011;41612;51.994;5.880;2023-07-22T17:50:54;6.22;;;2.53;;
55710;SDS011;41612;51.994;5.880;2023-07-22T17:53:19;3.88;;;2.17;;
55710;SDS011;41612;51.994;5.880;2023-07-22T17:55:47;5.78;;;2.50;;
55710;SDS011;41612;51.994;5.880;2023-07-22T17:58:13;6.97;;;3.10;;
55710;SDS011;41612;51.994;5.880;2023-07-22T18:00:38;4.45;;;2.50;;
55710;SDS011;41612;51.994;5.880;2023-07-22T18:03:04;5.00;;;2.47;;
55710;SDS011;41612;51.994;5.880;2023-07-22T18:05:30;6.07;;;2.58;;
55710;SDS011;41612;51.994;5.880;2023-07-22T18:07:55;6.97;;;3.35;;
55710;SDS011;41612;51.994;5.880;2023-07-22T18:10:21;6.55;;;2.47;;
55710;SDS011;41612;51.994;5.880;2023-07-22T18:12:47;5.60;;;2.33;;
55710;SDS011;41612;51.994;5.880;2023-07-22T18:15:12;6.65;;;2.67;;
55710;SDS011;41612;51.994;5.880;2023-07-22T18:17:38;5.03;;;2.15;;
55710;SDS011;41612;51.994;5.880;2023-07-22T18:20:04;6.43;;;2.30;;
55710;SDS011;41612;51.994;5.880;2023-07-22T18:22:31;5.65;;;2.25;;
55710;SDS011;41612;51.994;5.880;2023-07-22T18:24:57;7.07;;;3.03;;
55710;SDS011;41612;51.994;5.880;2023-07-22T18:27:22;7.55;;;3.00;;
55710;SDS011;41612;51.994;5.880;2023-07-22T18:29:48;4.50;;;2.03;;
55710;SDS011;41612;51.994;5.880;2023-07-22T18:32:14;5.03;;;2.67;;
55710;SDS011;41612;51.994;5.880;2023-07-22T18:34:39;4.57;;;2.50;;
55710;SDS011;41612;51.994;5.880;2023-07-22T18:37:07;3.63;;;1.77;;
55710;SDS011;41612;51.994;5.880;2023-07-22T18:39:33;4.13;;;2.17;;
55710;SDS011;41612;51.994;5.880;2023-07-22T18:41:59;4.13;;;2.55;;
55710;SDS011;41612;51.994;5.880;2023-07-22T18:44:25;5.00;;;2.35;;
55710;SDS011;41612;51.994;5.880;2023-07-22T18:46:51;5.03;;;2.22;;
55710;SDS011;41612;51.994;5.880;2023-07-22T18:49:16;5.93;;;2.55;;
55710;SDS011;41612;51.994;5.880;2023-07-22T18:51:42;5.45;;;2.28;;
55710;SDS011;41612;51.994;5.880;2023-07-22T18:54:08;7.85;;;2.42;;
55710;SDS011;41612;51.994;5.880;2023-07-22T18:56:33;6.38;;;2.22;;
55710;SDS011;41612;51.994;5.880;2023-07-22T18:58:59;4.75;;;2.28;;
55710;SDS011;41612;51.994;5.880;2023-07-22T19:01:24;5.28;;;2.42;;
55710;SDS011;41612;51.994;5.880;2023-07-22T19:03:50;5.75;;;3.13;;
55710;SDS011;41612;51.994;5.880;2023-07-22T19:06:16;6.97;;;2.42;;
55710;SDS011;41612;51.994;5.880;2023-07-22T19:08:41;5.32;;;2.60;;
55710;SDS011;41612;51.994;5.880;2023-07-22T19:11:07;6.82;;;2.65;;
55710;SDS011;41612;51.994;5.880;2023-07-22T19:13:35;4.45;;;2.22;;
55710;SDS011;41612;51.994;5.880;2023-07-22T19:16:00;6.78;;;2.75;;
55710;SDS011;41612;51.994;5.880;2023-07-22T19:18:26;6.00;;;2.92;;
55710;SDS011;41612;51.994;5.880;2023-07-22T19:20:56;8.27;;;2.67;;
55710;SDS011;41612;51.994;5.880;2023-07-22T19:23:23;4.82;;;3.00;;
55710;SDS011;41612;51.994;5.880;2023-07-22T19:25:51;5.68;;;2.70;;
55710;SDS011;41612;51.994;5.880;2023-07-22T19:28:20;5.40;;;2.40;;
55710;SDS011;41612;51.994;5.880;2023-07-22T19:30:46;7.97;;;3.97;;
55710;SDS011;41612;51.994;5.880;2023-07-22T19:33:20;6.85;;;2.63;;
55710;SDS011;41612;51.994;5.880;2023-07-22T19:35:58;4.72;;;2.65;;
55710;SDS011;41612;51.994;5.880;2023-07-22T19:38:33;6.82;;;3.10;;
55710;SDS011;41612;51.994;5.880;2023-07-22T19:41:04;7.95;;;3.80;;
55710;SDS011;41612;51.994;5.880;2023-07-22T19:43:31;5.30;;;3.10;;
55710;SDS011;41612;51.994;5.880;2023-07-22T19:46:03;9.02;;;3.55;;
55710;SDS011;41612;51.994;5.880;2023-07-22T19:48:31;7.65;;;3.55;;
55710;SDS011;41612;51.994;5.880;2023-07-22T19:50:58;6.15;;;3.30;;
55710;SDS011;41612;51.994;5.880;2023-07-22T19:53:24;5.20;;;2.85;;
55710;SDS011;41612;51.994;5.880;2023-07-22T19:55:49;5.43;;;2.67;;
55710;SDS011;41612;51.994;5.880;2023-07-22T19:58:15;4.50;;;2.50;;
55710;SDS011;41612;51.994;5.880;2023-07-22T20:00:43;3.72;;;2.53;;
55710;SDS011;41612;51.994;5.880;2023-07-22T20:03:09;3.90;;;2.03;;
55710;SDS011;41612;51.994;5.880;2023-07-22T20:05:34;5.10;;;3.15;;
55710;SDS011;41612;51.994;5.880;2023-07-22T20:08:00;6.57;;;2.45;;
55710;SDS011;41612;51.994;5.880;2023-07-22T20:10:27;4.05;;;2.50;;
55710;SDS011;41612;51.994;5.880;2023-07-22T20:12:53;5.05;;;3.13;;
55710;SDS011;41612;51.994;5.880;2023-07-22T20:15:18;4.32;;;2.50;;
55710;SDS011;41612;51.994;5.880;2023-07-22T20:17:44;6.65;;;3.08;;
55710;SDS011;41612;51.994;5.880;2023-07-22T20:20:10;4.78;;;2.55;;
55710;SDS011;41612;51.994;5.880;2023-07-22T20:22:35;4.70;;;2.63;;
55710;SDS011;41612;51.994;5.880;2023-07-22T20:25:01;5.65;;;3.10;;
55710;SDS011;41612;51.994;5.880;2023-07-22T20:27:27;5.72;;;2.88;;
55710;SDS011;41612;51.994;5.880;2023-07-22T20:29:53;4.53;;;2.33;;
55710;SDS011;41612;51.994;5.880;2023-07-22T20:32:19;5.63;;;2.72;;
55710;SDS011;41612;51.994;5.880;2023-07-22T20:34:45;4.05;;;2.42;;
55710;SDS011;41612;51.994;5.880;2023-07-22T20:37:10;4.97;;;2.97;;
55710;SDS011;41612;51.994;5.880;2023-07-22T20:39:36;6.20;;;2.85;;
55710;SDS011;41612;51.994;5.880;2023-07-22T20:42:02;4.43;;;2.67;;
55710;SDS011;41612;51.994;5.880;2023-07-22T20:44:27;5.10;;;3.17;;
55710;SDS011;41612;51.994;5.880;2023-07-22T20:46:53;4.90;;;2.58;;
55710;SDS011;41612;51.994;5.880;2023-07-22T20:49:19;4.50;;;2.78;;
55710;SDS011;41612;51.994;5.880;2023-07-22T20:51:44;4.70;;;2.80;;
55710;SDS011;41612;51.994;5.880;2023-07-22T20:54:10;4.80;;;2.65;;
55710;SDS011;41612;51.994;5.880;2023-07-22T20:56:36;6.18;;;3.20;;
55710;SDS011;41612;51.994;5.880;2023-07-22T20:59:03;4.80;;;2.90;;